createdAt,value
2019-05-23T00:03:58.887Z,17.85
2019-05-23T00:09:05.771Z,19.90
2019-05-23T00:14:27.105Z,17.05
2019-05-23T00:19:32.668Z,17.30
2019-05-23T00:24:39.346Z,16.30
2019-05-23T00:29:47.751Z,20.62
2019-05-23T00:34:56.010Z,19.17
2019-05-23T00:40:03.012Z,18.05
2019-05-23T00:45:12.438Z,19.27
2019-05-23T00:50:20.826Z,18.82
2019-05-23T00:55:30.496Z,17.52
2019-05-23T01:00:35.219Z,19.87
2019-05-23T01:05:43.153Z,17.60
2019-05-23T01:10:49.379Z,19.73
2019-05-23T01:15:55.614Z,19.57
2019-05-23T01:21:10.834Z,19.23
2019-05-23T01:26:20.773Z,15.85
2019-05-23T01:31:35.463Z,18.23
2019-05-23T01:36:40.432Z,19.90
2019-05-23T01:41:52.399Z,20.17
2019-05-23T01:46:59.333Z,19.85
2019-05-23T01:52:06.850Z,19.25
2019-05-23T01:57:13.231Z,19.98
2019-05-23T02:02:19.379Z,18.70
2019-05-23T02:07:27.944Z,22.73
2019-05-23T02:12:33.676Z,21.60
2019-05-23T02:17:43.511Z,21.70
2019-05-23T02:22:50.538Z,24.15
2019-05-23T02:27:57.473Z,22.15
2019-05-23T02:33:02.974Z,22.70
2019-05-23T02:38:12.286Z,21.55
2019-05-23T02:43:21.538Z,25.23
2019-05-23T02:48:30.931Z,24.43
2019-05-23T02:53:37.552Z,23.73
2019-05-23T02:59:07.777Z,21.97
2019-05-23T03:04:17.544Z,26.25
2019-05-23T03:09:27.876Z,25.12
2019-05-23T03:14:34.632Z,25.70
2019-05-23T03:19:58.055Z,26.93
2019-05-23T03:30:17.117Z,25.82
2019-05-23T03:35:26.891Z,31.57
2019-05-23T03:45:39.621Z,31.50
2019-05-23T03:50:49.145Z,30.08
2019-05-23T03:55:57.780Z,30.43
2019-05-23T04:01:07.492Z,31.95
2019-05-23T04:06:21.511Z,29.40
2019-05-23T04:11:29.145Z,33.65
2019-05-23T04:16:39.163Z,32.48
2019-05-23T04:21:44.834Z,33.55
2019-05-23T04:26:52.421Z,31.93
2019-05-23T04:32:07.758Z,36.10
2019-05-23T04:37:15.422Z,35.25
2019-05-23T04:42:21.548Z,38.05
2019-05-23T04:47:35.985Z,33.10
2019-05-23T04:52:43.678Z,36.50
2019-05-23T04:57:49.536Z,36.80
2019-05-23T05:02:57.714Z,37.00
2019-05-23T05:08:04.148Z,37.30
2019-05-23T05:13:09.442Z,37.23
2019-05-23T05:18:17.626Z,37.28
2019-05-23T05:23:25.487Z,33.63
2019-05-23T05:28:29.912Z,36.70
2019-05-23T05:33:37.199Z,34.92
2019-05-23T05:38:41.496Z,32.17
2019-05-23T05:43:46.365Z,37.65
2019-05-23T05:48:51.433Z,33.38
2019-05-23T05:53:55.849Z,48.13
2019-05-23T05:59:00.513Z,35.68
2019-05-23T06:04:07.301Z,46.70
2019-05-23T06:09:13.435Z,35.70
2019-05-23T06:14:18.279Z,36.10
2019-05-23T06:19:24.597Z,31.85
2019-05-23T06:24:44.980Z,28.77
2019-05-23T06:29:35.579Z,37.03
2019-05-23T06:34:41.007Z,30.23
2019-05-23T06:39:45.564Z,35.90
2019-05-23T06:44:49.977Z,31.30
2019-05-23T06:49:54.643Z,30.97
2019-05-23T06:54:59.829Z,26.85
2019-05-23T07:00:07.275Z,27.60
2019-05-23T07:05:12.903Z,23.95
2019-05-23T07:10:17.590Z,27.32
2019-05-23T07:15:24.683Z,23.80
2019-05-23T07:20:29.211Z,23.35
2019-05-23T07:25:34.402Z,20.15
2019-05-23T07:30:38.807Z,18.60
2019-05-23T07:35:43.165Z,16.02
2019-05-23T07:40:49.366Z,13.83
2019-05-23T07:45:57.932Z,14.03
2019-05-23T07:51:10.405Z,11.85
2019-05-23T07:56:19.640Z,15.48
2019-05-23T08:01:29.023Z,16.55
2019-05-23T08:06:33.758Z,16.12
2019-05-23T08:11:38.331Z,18.48
2019-05-23T08:16:43.019Z,20.97
2019-05-23T08:21:48.911Z,20.90
2019-05-23T08:26:55.797Z,19.10
2019-05-23T08:32:00.366Z,16.82
2019-05-23T08:37:04.879Z,18.27
2019-05-23T08:42:10.801Z,16.42
2019-05-23T08:47:30.038Z,15.32
2019-05-23T08:52:34.683Z,18.00
2019-05-23T08:57:40.038Z,14.55
2019-05-23T09:02:47.234Z,17.45
2019-05-23T09:07:52.370Z,15.65
2019-05-23T09:12:57.328Z,15.15
2019-05-23T09:18:02.092Z,14.70
2019-05-23T09:23:06.787Z,17.90
2019-05-23T09:28:12.905Z,12.82
2019-05-23T09:33:17.579Z,12.80
2019-05-23T09:38:22.285Z,13.60
2019-05-23T09:43:27.624Z,14.90
2019-05-23T09:48:32.130Z,12.13
2019-05-23T09:53:36.622Z,14.18
2019-05-23T09:58:41.680Z,11.28
2019-05-23T10:04:06.891Z,9.55
2019-05-23T10:09:25.272Z,8.13
2019-05-23T10:14:40.061Z,11.20
2019-05-23T10:19:44.456Z,9.65
2019-05-23T10:24:51.850Z,10.00
2019-05-23T10:29:56.232Z,11.53
2019-05-23T10:35:00.879Z,8.45
2019-05-23T10:40:08.826Z,12.40
2019-05-23T10:45:15.769Z,9.18
2019-05-23T10:50:20.163Z,10.48
2019-05-23T10:55:24.646Z,7.65
2019-05-23T11:00:30.359Z,7.30
2019-05-23T11:05:35.074Z,6.78
2019-05-23T11:10:40.810Z,8.63
2019-05-23T11:15:45.571Z,6.90
2019-05-23T11:20:50.822Z,8.18
2019-05-23T11:25:55.785Z,8.53
2019-05-23T11:31:01.720Z,9.75
2019-05-23T11:36:06.786Z,8.85
2019-05-23T11:41:11.846Z,9.85
2019-05-23T11:46:20.886Z,8.15
2019-05-23T11:51:27.837Z,11.20
2019-05-23T11:56:33.223Z,6.55
2019-05-23T12:01:49.044Z,6.97
2019-05-23T12:06:58.289Z,9.15
2019-05-23T12:12:03.433Z,8.45
2019-05-23T12:17:08.163Z,7.60
2019-05-23T12:22:12.639Z,7.08
2019-05-23T12:27:17.152Z,10.05
2019-05-23T12:32:21.771Z,8.80
2019-05-23T12:37:26.319Z,9.18
2019-05-23T12:42:30.782Z,9.28
2019-05-23T12:47:36.919Z,10.03
2019-05-23T12:52:41.514Z,9.90
2019-05-23T12:57:45.983Z,9.33
2019-05-23T13:02:50.480Z,10.18
2019-05-23T13:07:55.111Z,6.00
2019-05-23T13:13:00.339Z,13.43
2019-05-23T13:18:05.351Z,9.13
2019-05-23T13:23:19.578Z,9.38
2019-05-23T13:28:16.099Z,8.78
2019-05-23T13:33:20.614Z,13.18
2019-05-23T13:38:25.013Z,9.80
2019-05-23T13:43:30.756Z,8.50
2019-05-23T13:48:35.236Z,6.45
2019-05-23T13:53:40.057Z,7.58
2019-05-23T13:58:46.201Z,5.90
2019-05-23T14:03:50.896Z,9.03
2019-05-23T14:08:55.447Z,8.03
2019-05-23T14:14:02.107Z,9.33
2019-05-23T14:19:06.687Z,10.08
2019-05-23T14:24:11.344Z,7.75
2019-05-23T14:29:15.887Z,8.70
2019-05-23T14:34:20.741Z,10.63
2019-05-23T14:39:27.032Z,8.43
2019-05-23T14:44:31.861Z,6.42
2019-05-23T14:49:41.637Z,5.67
2019-05-23T14:54:47.302Z,5.62
2019-05-23T14:59:51.748Z,3.42
2019-05-23T15:04:56.214Z,5.92
2019-05-23T15:10:00.754Z,5.47
2019-05-23T15:15:07.925Z,6.53
2019-05-23T15:20:12.523Z,8.05
2019-05-23T15:25:16.991Z,7.12
2019-05-23T15:30:21.588Z,6.12
2019-05-23T15:35:28.087Z,8.10
2019-05-23T15:40:33.017Z,6.47
2019-05-23T15:45:37.584Z,6.28
2019-05-23T15:50:46.670Z,9.65
2019-05-23T15:55:52.713Z,6.67
2019-05-23T16:01:04.323Z,7.92
2019-05-23T16:06:10.617Z,6.73
2019-05-23T16:11:17.545Z,7.75
2019-05-23T16:16:22.278Z,6.58
2019-05-23T16:21:27.525Z,5.15
2019-05-23T16:26:32.040Z,4.15
2019-05-23T16:31:36.405Z,5.72
2019-05-23T16:36:41.586Z,4.50
2019-05-23T16:41:45.964Z,5.60
2019-05-23T16:46:50.464Z,6.50
2019-05-23T16:51:54.908Z,7.70
2019-05-23T16:57:06.962Z,7.35
2019-05-23T17:02:16.272Z,7.20
2019-05-23T17:07:37.395Z,6.10
2019-05-23T17:12:49.323Z,8.55
2019-05-23T17:18:04.124Z,6.33
2019-05-23T17:23:19.134Z,7.97
2019-05-23T17:28:34.704Z,7.55
2019-05-23T17:33:39.415Z,6.92
2019-05-23T17:38:44.113Z,4.83
2019-05-23T17:43:51.327Z,7.25
2019-05-23T17:48:55.839Z,6.72
2019-05-23T17:54:00.372Z,6.45
2019-05-23T17:59:04.925Z,6.00
2019-05-23T18:04:12.868Z,5.00
2019-05-23T18:09:17.275Z,6.60
2019-05-23T18:14:23.007Z,5.65
2019-05-23T18:19:28.182Z,5.37
2019-05-23T18:24:32.939Z,7.50
2019-05-23T18:29:37.592Z,6.42
2019-05-23T18:34:42.353Z,5.17
2019-05-23T18:39:46.789Z,6.30
2019-05-23T18:44:51.559Z,6.20
2019-05-23T18:49:56.816Z,5.80
2019-05-23T18:55:01.361Z,4.90
2019-05-23T19:00:07.733Z,5.80
2019-05-23T19:05:13.640Z,5.58
2019-05-23T19:10:19.305Z,5.92
2019-05-23T19:15:24.087Z,6.67
2019-05-23T19:20:28.599Z,7.47
2019-05-23T19:25:35.687Z,6.85
2019-05-23T19:30:40.158Z,7.60
2019-05-23T19:35:47.364Z,10.82
2019-05-23T19:40:52.646Z,9.80
2019-05-23T19:45:57.407Z,14.73
2019-05-23T19:51:02.499Z,14.43
2019-05-23T19:56:08.966Z,10.65
2019-05-23T20:01:13.603Z,10.03
2019-05-23T20:06:22.808Z,11.93
2019-05-23T20:11:35.101Z,13.08
2019-05-23T20:16:51.176Z,11.90
2019-05-23T20:22:07.593Z,10.35
2019-05-23T20:27:20.738Z,18.85
2019-05-23T20:32:30.729Z,10.75
2019-05-23T20:37:36.637Z,16.12
2019-05-23T20:42:46.090Z,13.72
2019-05-23T20:47:51.765Z,12.90
2019-05-23T20:52:59.452Z,10.40
2019-05-23T20:58:05.398Z,9.80
2019-05-23T21:03:12.786Z,11.70
2019-05-23T21:18:25.667Z,11.50
2019-05-23T21:23:33.141Z,12.95
2019-05-23T21:28:39.773Z,11.70
2019-05-23T21:33:50.356Z,13.55
2019-05-23T21:38:59.460Z,14.28
2019-05-23T21:44:04.014Z,13.10
2019-05-23T21:49:14.021Z,15.23
2019-05-23T21:54:18.813Z,14.65
2019-05-23T21:59:25.482Z,12.90
2019-05-23T22:04:33.736Z,17.60
2019-05-23T22:09:44.574Z,12.55
2019-05-23T22:14:50.714Z,15.23
2019-05-23T22:19:57.043Z,16.05
2019-05-23T22:25:04.848Z,19.20
2019-05-23T22:30:12.061Z,15.93
2019-05-23T22:35:20.680Z,16.87
2019-05-23T22:40:26.135Z,16.02
2019-05-23T22:45:31.584Z,16.55
2019-05-23T22:50:41.504Z,19.57
2019-05-23T22:55:45.815Z,16.32
2019-05-23T23:00:51.629Z,18.55
2019-05-23T23:06:00.048Z,17.37
2019-05-23T23:11:05.256Z,17.57
2019-05-23T23:16:11.588Z,16.23
2019-05-23T23:26:26.445Z,18.75
2019-05-23T23:31:34.609Z,18.57
2019-05-23T23:36:42.452Z,22.70
2019-05-23T23:41:52.184Z,22.75
2019-05-23T23:47:17.036Z,22.65
2019-05-23T23:52:43.764Z,23.10
2019-05-23T23:58:01.007Z,21.97
